Terminal Aerodrome Forecast
Issued by NWS

Home | Current Version | Previous Version | Graphics & Text | Print | Product List | Glossary On
Versions: 1 2 3 4 5 6 7 8 9 10 11 12 13 14
000
FTUS43 KIWX 242300
TAFSBN
TAF
KSBN 242336Z 2500/2524 13017KT P6SM BKN150
     FM250800 13009KT P6SM -SHRA OVC060
     FM251100 28008KT P6SM BKN015
     FM251500 32016G23KT P6SM SCT250=

USA.gov is the U.S. government's official web portal to all federal, state and local government web resources and services.